Liberty, Maine
Current Conditions -  °F | °C
As of 9:35 AM on Monday 20 Oct 2014 (Local Time) from KWVL Reporting Station
Clear Clear  
Wind Chill: 37°   Ceiling: Unl
Heat Index: 43°   Visibility: 10mi
Dew Point: 21°   Wind: 9mph
Humidity: 42%   Direction: 280°W
Pressure: 29.93"   Gusts: 16mph
Location:  44.39°N, 69.3°W
Report Text: KWVL 201335Z 28008G14KT 230V310 10SM CLR 06/M06 A2993 RMK AO1
Loading
Personal Weather Stations






























Interactive Weather Map
Tropical Storm Tracking
New forecast layout! Learn more

10-Day Weather Forecast

Advertisements
Track Severe Weather on mobile